createdAt,value
2022-12-24T00:00:11.315Z,51.43
2022-12-24T00:02:40.993Z,51.67
2022-12-24T00:05:12.582Z,52.07
2022-12-24T00:07:42.148Z,54.20
2022-12-24T00:10:12.141Z,54.50
2022-12-24T00:12:41.675Z,52.07
2022-12-24T00:15:11.432Z,52.97
2022-12-24T00:17:40.874Z,52.50
2022-12-24T00:20:12.774Z,51.23
2022-12-24T00:22:42.254Z,50.07
2022-12-24T00:25:12.012Z,51.60
2022-12-24T00:27:41.515Z,51.07
2022-12-24T00:30:11.569Z,50.87
2022-12-24T00:32:41.052Z,49.50
2022-12-24T00:35:12.368Z,51.73
2022-12-24T00:37:41.822Z,66.70
2022-12-24T00:40:11.718Z,60.83
2022-12-24T00:42:41.224Z,57.10
2022-12-24T00:45:11.271Z,56.83
2022-12-24T00:47:40.768Z,56.87
2022-12-24T00:50:12.501Z,59.47
2022-12-24T00:52:42.037Z,56.57
2022-12-24T00:55:11.716Z,55.40
2022-12-24T00:57:41.381Z,58.03
2022-12-24T01:00:11.528Z,57.50
2022-12-24T01:02:41.237Z,55.83
2022-12-24T01:05:11.777Z,53.97
2022-12-24T01:07:42.492Z,59.20
2022-12-24T01:10:12.280Z,57.10
2022-12-24T01:12:42.100Z,63.33
2022-12-24T01:15:12.354Z,58.23
2022-12-24T01:17:42.300Z,55.27
2022-12-24T01:20:15.560Z,55.30
2022-12-24T01:22:45.132Z,57.07
2022-12-24T01:25:14.588Z,56.53
2022-12-24T01:27:46.100Z,55.27
2022-12-24T01:30:16.713Z,54.90
2022-12-24T01:32:46.236Z,55.27
2022-12-24T01:35:17.225Z,53.37
2022-12-24T01:37:46.885Z,56.57
2022-12-24T01:40:35.462Z,53.83
2022-12-24T01:43:22.128Z,53.87
2022-12-24T01:45:52.710Z,50.57
2022-12-24T01:48:24.672Z,48.23
2022-12-24T01:50:58.391Z,46.90
2022-12-24T01:53:28.348Z,45.57
2022-12-24T01:55:58.222Z,42.67
2022-12-24T01:58:28.890Z,40.67
2022-12-24T02:00:58.461Z,43.50
2022-12-24T02:03:27.977Z,42.00
2022-12-24T02:06:00.823Z,39.97
2022-12-24T02:08:40.321Z,40.03
2022-12-24T02:11:13.250Z,42.80
2022-12-24T02:13:42.850Z,42.00
2022-12-24T02:16:17.156Z,41.97
2022-12-24T02:18:51.151Z,38.97
2022-12-24T02:21:41.449Z,38.43
2022-12-24T02:24:43.765Z,37.67
2022-12-24T02:27:37.062Z,38.93
2022-12-24T02:30:10.468Z,38.50
2022-12-24T02:32:45.959Z,39.53
2022-12-24T02:35:18.388Z,39.07
2022-12-24T02:37:50.245Z,38.57
2022-12-24T02:40:22.288Z,36.60
2022-12-24T02:42:53.742Z,36.37
2022-12-24T02:45:26.202Z,37.43
2022-12-24T02:47:57.361Z,35.97
2022-12-24T02:50:27.058Z,36.93
2022-12-24T02:52:56.456Z,37.47
2022-12-24T02:55:27.270Z,36.83
2022-12-24T02:58:03.727Z,36.00
2022-12-24T03:00:38.869Z,36.97
2022-12-24T03:03:14.970Z,36.97
2022-12-24T03:05:48.198Z,37.47
2022-12-24T03:08:20.262Z,40.07
2022-12-24T03:10:54.267Z,39.27
2022-12-24T03:13:24.202Z,39.57
2022-12-24T03:15:55.223Z,40.67
2022-12-24T03:18:26.167Z,40.53
2022-12-24T03:21:00.215Z,39.83
2022-12-24T03:23:29.802Z,39.70
2022-12-24T03:25:59.428Z,37.77
2022-12-24T03:28:29.770Z,39.23
2022-12-24T03:31:03.733Z,38.50
2022-12-24T03:33:33.469Z,39.33
2022-12-24T03:36:02.838Z,37.97
2022-12-24T03:38:32.293Z,37.07
2022-12-24T03:41:01.817Z,37.20
2022-12-24T03:43:31.409Z,37.83
2022-12-24T03:46:06.013Z,37.07
2022-12-24T03:48:36.598Z,36.67
2022-12-24T03:51:06.292Z,37.77
2022-12-24T03:53:35.782Z,37.40
2022-12-24T03:56:05.292Z,36.73
2022-12-24T03:58:34.705Z,37.50
2022-12-24T04:01:05.884Z,34.40
2022-12-24T04:03:35.605Z,36.43
2022-12-24T04:06:05.816Z,36.80
2022-12-24T04:08:35.495Z,35.97
2022-12-24T04:11:10.245Z,35.33
2022-12-24T04:13:39.984Z,36.20
2022-12-24T04:16:12.472Z,35.63
2022-12-24T04:18:42.243Z,37.07
2022-12-24T04:21:12.114Z,36.13
2022-12-24T04:23:42.960Z,35.70
2022-12-24T04:26:14.167Z,35.03
2022-12-24T04:28:44.180Z,36.77
2022-12-24T04:31:16.340Z,36.40
2022-12-24T04:33:46.339Z,35.43
2022-12-24T04:36:17.263Z,36.43
2022-12-24T04:38:46.909Z,39.47
2022-12-24T04:41:23.238Z,40.10
2022-12-24T04:43:54.436Z,38.70
2022-12-24T04:46:26.816Z,36.57
2022-12-24T04:48:56.979Z,37.40
2022-12-24T04:51:26.514Z,38.10
2022-12-24T04:53:56.155Z,37.50
2022-12-24T04:56:26.495Z,35.50
2022-12-24T04:58:56.097Z,36.57
2022-12-24T05:01:27.769Z,35.70
2022-12-24T05:03:58.144Z,36.13
2022-12-24T05:06:28.918Z,35.07
2022-12-24T05:08:59.275Z,34.80
2022-12-24T05:11:28.944Z,35.27
2022-12-24T05:13:58.633Z,34.80
2022-12-24T05:16:29.609Z,36.87
2022-12-24T05:18:59.188Z,37.67
2022-12-24T05:21:28.628Z,38.73
2022-12-24T05:24:15.269Z,37.30
2022-12-24T05:26:46.360Z,38.30
2022-12-24T05:29:15.824Z,37.00
2022-12-24T05:31:47.405Z,37.40
2022-12-24T05:34:17.621Z,36.60
2022-12-24T05:36:47.309Z,36.90
2022-12-24T05:39:17.733Z,34.57
2022-12-24T05:41:47.556Z,34.83
2022-12-24T05:44:17.578Z,35.60
2022-12-24T05:46:48.561Z,34.37
2022-12-24T05:49:18.033Z,34.90
2022-12-24T05:51:47.387Z,32.83
2022-12-24T05:54:16.902Z,30.77
2022-12-24T05:56:46.267Z,30.90
2022-12-24T05:59:15.718Z,32.33
2022-12-24T06:01:47.637Z,30.47
2022-12-24T06:04:23.082Z,30.43
2022-12-24T06:06:56.112Z,30.80
2022-12-24T06:09:25.481Z,29.17
2022-12-24T06:11:55.074Z,28.13
2022-12-24T06:14:24.630Z,27.80
2022-12-24T06:16:54.296Z,27.87
2022-12-24T06:19:25.949Z,26.13
2022-12-24T06:21:55.432Z,28.20
2022-12-24T06:24:24.825Z,27.73
2022-12-24T06:26:54.288Z,27.30
2022-12-24T06:29:23.630Z,25.73
2022-12-24T06:31:53.142Z,25.40
2022-12-24T06:34:22.598Z,26.00
2022-12-24T06:36:53.591Z,25.73
2022-12-24T06:39:23.123Z,27.60
2022-12-24T06:41:52.468Z,26.30
2022-12-24T06:44:21.891Z,26.00
2022-12-24T06:46:51.389Z,26.97
2022-12-24T06:49:20.991Z,27.20
2022-12-24T06:51:50.316Z,27.37
2022-12-24T06:54:21.399Z,33.80
2022-12-24T06:56:50.872Z,32.33
2022-12-24T06:59:20.194Z,32.20
2022-12-24T07:01:49.831Z,32.67
2022-12-24T07:04:20.704Z,30.17
2022-12-24T07:06:50.463Z,30.53
2022-12-24T07:09:21.340Z,27.53
2022-12-24T07:11:50.971Z,27.40
2022-12-24T07:14:20.819Z,26.30
2022-12-24T07:16:55.291Z,26.70
2022-12-24T07:19:28.133Z,28.23
2022-12-24T07:21:57.521Z,28.60
2022-12-24T07:24:28.551Z,29.03
2022-12-24T07:26:57.993Z,29.17
2022-12-24T07:29:27.345Z,28.37
2022-12-24T07:31:56.863Z,29.90
2022-12-24T07:34:26.276Z,29.93
2022-12-24T07:36:55.747Z,31.77
2022-12-24T07:39:25.203Z,31.60
2022-12-24T07:41:56.122Z,32.37
2022-12-24T07:44:27.180Z,30.93
2022-12-24T07:46:56.752Z,32.60
2022-12-24T07:49:26.158Z,32.00
2022-12-24T07:51:55.795Z,33.77
2022-12-24T07:54:25.948Z,33.43
2022-12-24T07:56:56.991Z,34.03
2022-12-24T07:59:26.675Z,32.47
2022-12-24T08:01:56.102Z,32.73
2022-12-24T08:04:25.670Z,35.30
2022-12-24T08:06:55.150Z,39.33
2022-12-24T08:09:24.708Z,39.67
2022-12-24T08:11:54.239Z,33.50
2022-12-24T08:14:25.386Z,33.43
2022-12-24T08:16:55.047Z,36.40
2022-12-24T08:19:24.521Z,35.80
2022-12-24T08:21:54.138Z,37.33
2022-12-24T08:24:23.582Z,34.63
2022-12-24T08:26:53.028Z,34.40
2022-12-24T08:29:22.375Z,34.37
2022-12-24T08:31:53.476Z,33.67
2022-12-24T08:34:22.963Z,32.83
2022-12-24T08:36:52.367Z,34.20
2022-12-24T08:39:21.964Z,35.50
2022-12-24T08:41:51.324Z,35.83
2022-12-24T08:44:20.823Z,35.40
2022-12-24T08:46:50.232Z,35.97
2022-12-24T08:49:21.180Z,37.00
2022-12-24T08:51:50.697Z,39.07
2022-12-24T08:54:22.801Z,37.10
2022-12-24T08:56:52.308Z,38.57
2022-12-24T08:59:21.705Z,40.40
2022-12-24T09:01:51.224Z,39.17
2022-12-24T09:04:22.298Z,41.57
2022-12-24T09:06:51.824Z,38.40
2022-12-24T09:09:21.192Z,33.33
2022-12-24T09:11:50.742Z,32.50
2022-12-24T09:14:20.076Z,31.67
2022-12-24T09:16:49.450Z,32.10
2022-12-24T09:19:18.862Z,26.10
2022-12-24T09:21:50.588Z,30.17
2022-12-24T09:24:20.129Z,33.03
2022-12-24T09:26:55.623Z,29.17
2022-12-24T09:29:27.173Z,28.07
2022-12-24T09:31:58.176Z,29.83
2022-12-24T09:34:30.543Z,28.90
2022-12-24T09:37:05.508Z,28.63
2022-12-24T09:39:35.076Z,28.47
2022-12-24T09:42:07.955Z,27.97
2022-12-24T09:44:41.077Z,30.30
2022-12-24T09:47:15.267Z,29.47
2022-12-24T09:49:46.158Z,30.63
2022-12-24T09:52:19.704Z,32.77
2022-12-24T09:54:54.134Z,31.53
2022-12-24T09:57:28.294Z,32.03
2022-12-24T09:59:57.907Z,31.03
2022-12-24T10:02:27.362Z,29.00
2022-12-24T10:04:57.145Z,30.53
2022-12-24T10:07:33.409Z,29.53
2022-12-24T10:10:05.534Z,29.60
2022-12-24T10:12:37.535Z,30.57
2022-12-24T10:15:13.786Z,28.80
2022-12-24T10:17:55.396Z,32.20
2022-12-24T10:20:36.057Z,38.33
2022-12-24T10:23:08.937Z,30.77
2022-12-24T10:25:39.931Z,29.10
2022-12-24T10:28:15.334Z,30.27
2022-12-24T10:30:47.007Z,30.43
2022-12-24T10:33:19.568Z,29.03
2022-12-24T10:35:51.364Z,29.67
2022-12-24T10:38:22.349Z,29.67
2022-12-24T10:40:53.444Z,28.40
2022-12-24T10:43:23.946Z,29.97
2022-12-24T10:45:54.322Z,29.47
2022-12-24T10:48:26.542Z,30.63
2022-12-24T10:51:01.044Z,30.87
2022-12-24T10:53:35.265Z,30.67
2022-12-24T10:56:06.380Z,33.13
2022-12-24T10:58:36.502Z,30.43
2022-12-24T11:01:06.837Z,31.43
2022-12-24T11:03:37.100Z,30.53
2022-12-24T11:06:14.083Z,32.73
2022-12-24T11:08:45.783Z,31.47
2022-12-24T11:11:16.213Z,33.37
2022-12-24T11:13:46.930Z,34.13
2022-12-24T11:16:20.320Z,35.17
2022-12-24T11:18:52.140Z,32.43
2022-12-24T11:21:24.188Z,29.83
2022-12-24T11:23:56.981Z,29.90
2022-12-24T11:26:27.261Z,28.40
2022-12-24T11:29:08.111Z,29.07
2022-12-24T11:31:38.576Z,30.87
2022-12-24T11:34:20.905Z,28.10
2022-12-24T11:36:50.435Z,28.53
2022-12-24T11:39:25.024Z,30.00
2022-12-24T11:41:55.517Z,26.73
2022-12-24T11:44:27.333Z,28.43
2022-12-24T11:46:58.069Z,28.23
2022-12-24T11:49:29.322Z,26.57
2022-12-24T11:52:19.770Z,27.57
2022-12-24T11:54:54.044Z,28.53
2022-12-24T11:57:25.465Z,27.57
2022-12-24T11:59:54.945Z,28.00
2022-12-24T12:02:25.929Z,25.80
2022-12-24T12:04:57.653Z,25.07
2022-12-24T12:07:28.802Z,21.10
2022-12-24T12:10:02.061Z,22.87
2022-12-24T12:12:33.804Z,22.43
2022-12-24T12:15:05.361Z,20.83
2022-12-24T12:17:36.260Z,21.10
2022-12-24T12:20:15.558Z,18.88
2022-12-24T12:23:31.819Z,11.60
2022-12-24T12:26:03.824Z,11.05
2022-12-24T12:29:06.832Z,6.75
2022-12-24T12:32:06.338Z,8.27
2022-12-24T12:35:22.079Z,12.15
2022-12-24T12:38:04.939Z,13.50
2022-12-24T12:41:09.901Z,15.18
2022-12-24T12:43:52.467Z,13.40
2022-12-24T12:46:47.119Z,11.82
2022-12-24T12:49:33.279Z,13.52
2022-12-24T12:52:18.403Z,12.98
2022-12-24T12:54:55.154Z,11.45
2022-12-24T12:57:27.649Z,12.35
2022-12-24T13:00:05.045Z,13.10
2022-12-24T13:02:50.879Z,12.88
2022-12-24T13:05:34.650Z,14.00
2022-12-24T13:08:25.894Z,13.05
2022-12-24T13:11:09.840Z,12.15
2022-12-24T13:14:01.447Z,10.73
2022-12-24T13:16:47.537Z,12.63
2022-12-24T13:19:36.009Z,12.68
2022-12-24T13:22:18.075Z,12.88
2022-12-24T13:24:52.695Z,11.23
2022-12-24T13:27:26.612Z,12.48
2022-12-24T13:32:58.975Z,12.00
2022-12-24T13:35:38.773Z,12.70
2022-12-24T13:38:29.728Z,12.10
2022-12-24T13:41:38.882Z,12.83
2022-12-24T13:44:21.192Z,13.43
2022-12-24T13:46:58.633Z,13.97
2022-12-24T13:49:39.286Z,13.53
2022-12-24T13:52:26.002Z,16.17
2022-12-24T13:55:44.428Z,15.03
2022-12-24T13:58:19.999Z,14.10
2022-12-24T14:01:03.261Z,14.10
2022-12-24T14:03:35.341Z,14.13
2022-12-24T14:06:10.009Z,13.83
2022-12-24T14:08:42.670Z,13.27
2022-12-24T14:11:16.008Z,13.00
2022-12-24T14:13:59.213Z,13.37
2022-12-24T14:16:39.918Z,14.23
2022-12-24T14:19:22.517Z,13.63
2022-12-24T14:22:03.870Z,14.73
2022-12-24T14:24:36.752Z,17.87
2022-12-24T14:27:14.052Z,16.63
2022-12-24T14:29:47.905Z,17.70
2022-12-24T14:32:19.232Z,17.23
2022-12-24T14:34:49.516Z,17.27
2022-12-24T14:37:23.263Z,18.33
2022-12-24T14:39:57.331Z,18.73
2022-12-24T14:42:36.048Z,17.83
2022-12-24T14:45:09.654Z,19.03
2022-12-24T14:47:43.707Z,17.43
2022-12-24T14:50:31.732Z,17.57
2022-12-24T14:53:18.828Z,16.33
2022-12-24T14:55:50.249Z,17.43
2022-12-24T14:58:25.386Z,20.03
2022-12-24T15:00:56.911Z,25.43
2022-12-24T15:03:28.713Z,24.70
2022-12-24T15:06:00.117Z,25.80
2022-12-24T15:08:34.092Z,30.40
2022-12-24T15:11:06.614Z,30.33
2022-12-24T15:13:39.017Z,33.13
2022-12-24T15:16:11.113Z,37.80
2022-12-24T15:18:44.975Z,38.20
2022-12-24T15:21:20.189Z,35.37
2022-12-24T15:23:52.535Z,36.27
2022-12-24T15:26:25.709Z,38.67
2022-12-24T15:29:02.364Z,39.13
2022-12-24T15:31:33.122Z,40.73
2022-12-24T15:34:02.371Z,40.20
2022-12-24T15:36:33.524Z,40.57
2022-12-24T15:39:07.007Z,40.80
2022-12-24T15:42:00.700Z,48.87
2022-12-24T15:44:34.669Z,43.40
2022-12-24T15:47:06.534Z,41.97
2022-12-24T15:49:36.421Z,43.07
2022-12-24T15:52:07.933Z,45.90
2022-12-24T15:54:38.729Z,49.23
2022-12-24T15:57:16.878Z,43.27
2022-12-24T15:59:45.984Z,50.90
2022-12-24T16:02:30.680Z,63.70
2022-12-24T16:05:21.558Z,56.80
2022-12-24T16:08:11.631Z,57.47
2022-12-24T16:10:43.735Z,54.73
2022-12-24T16:13:14.734Z,55.90
2022-12-24T16:15:47.065Z,63.67
2022-12-24T16:18:21.609Z,63.87
2022-12-24T16:20:52.394Z,66.13
2022-12-24T16:23:22.425Z,59.27
2022-12-24T16:25:54.266Z,50.03
2022-12-24T16:28:23.563Z,54.83
2022-12-24T16:30:55.903Z,55.00
2022-12-24T16:33:25.401Z,57.23
2022-12-24T16:35:54.768Z,58.00
2022-12-24T16:38:24.013Z,57.30
2022-12-24T16:40:54.608Z,62.37
2022-12-24T16:43:50.966Z,61.63
2022-12-24T16:46:20.719Z,53.40
2022-12-24T16:48:50.824Z,55.27
2022-12-24T16:51:19.993Z,55.50
2022-12-24T16:53:49.184Z,53.10
2022-12-24T16:56:20.754Z,54.53
2022-12-24T16:58:49.877Z,67.60
2022-12-24T17:01:19.060Z,55.97
2022-12-24T17:03:48.359Z,109.67
2022-12-24T17:06:17.427Z,117.23
2022-12-24T17:08:46.538Z,96.10
2022-12-24T17:11:15.743Z,68.60
2022-12-24T17:13:46.283Z,70.40
2022-12-24T17:16:15.456Z,64.00
2022-12-24T17:18:44.648Z,63.73
2022-12-24T17:21:15.440Z,61.13
2022-12-24T17:23:44.850Z,60.13
2022-12-24T17:26:15.420Z,55.63
2022-12-24T17:28:46.451Z,53.87
2022-12-24T17:31:17.838Z,51.57
2022-12-24T17:33:47.101Z,50.87
2022-12-24T17:36:16.134Z,48.67
2022-12-24T17:38:45.433Z,52.33
2022-12-24T17:41:16.439Z,51.43
2022-12-24T17:43:47.393Z,48.43
2022-12-24T17:46:18.534Z,48.13
2022-12-24T17:48:47.669Z,47.77
2022-12-24T17:51:21.079Z,49.07
2022-12-24T17:53:50.981Z,48.57
2022-12-24T17:56:20.100Z,48.60
2022-12-24T17:58:51.997Z,49.87
2022-12-24T18:21:48.884Z,47.03
2022-12-24T18:24:17.563Z,47.67
2022-12-24T18:26:48.859Z,45.87
2022-12-24T18:29:18.422Z,46.93
2022-12-24T18:31:47.258Z,45.87
2022-12-24T18:34:16.341Z,42.83
2022-12-24T18:36:47.177Z,43.23
2022-12-24T18:39:21.267Z,45.93
2022-12-24T18:41:50.306Z,44.27
2022-12-24T18:44:24.561Z,48.20
2022-12-24T18:46:54.697Z,43.80
2022-12-24T18:49:23.382Z,47.40
2022-12-24T18:51:52.219Z,45.80
2022-12-24T18:54:22.279Z,42.10
2022-12-24T18:56:52.133Z,44.90
2022-12-24T18:59:20.628Z,41.50
2022-12-24T19:01:49.407Z,40.60
2022-12-24T19:04:18.091Z,45.20
2022-12-24T19:06:52.690Z,44.30
2022-12-24T19:09:23.471Z,44.17
2022-12-24T19:11:51.980Z,41.90
2022-12-24T19:14:21.121Z,41.27
2022-12-24T19:16:49.757Z,42.03
2022-12-24T19:19:21.439Z,44.33
2022-12-24T19:21:49.942Z,44.63
2022-12-24T19:24:18.455Z,43.40
2022-12-24T19:26:48.787Z,43.70
2022-12-24T19:29:17.362Z,43.73
2022-12-24T19:31:47.506Z,45.10
2022-12-24T19:34:16.264Z,45.03
2022-12-24T19:36:44.820Z,44.07
2022-12-24T19:39:13.408Z,43.93
2022-12-24T19:41:42.137Z,42.30
2022-12-24T19:44:13.144Z,43.07
2022-12-24T19:46:41.664Z,44.43
2022-12-24T19:49:13.093Z,45.27
2022-12-24T19:51:41.712Z,42.47
2022-12-24T19:54:18.584Z,43.87
2022-12-24T19:56:47.688Z,42.37
2022-12-24T19:59:18.097Z,42.47
2022-12-24T20:01:47.341Z,43.40
2022-12-24T20:04:18.916Z,42.90
2022-12-24T20:06:47.475Z,43.57
2022-12-24T20:09:17.139Z,43.70
2022-12-24T20:11:45.659Z,44.93
2022-12-24T20:14:14.185Z,42.40
2022-12-24T20:16:44.231Z,45.13
2022-12-24T20:19:15.293Z,43.47
2022-12-24T20:21:43.850Z,44.67
2022-12-24T20:24:12.635Z,41.07
2022-12-24T20:26:41.525Z,44.87
2022-12-24T20:29:12.023Z,45.07
2022-12-24T20:31:40.906Z,44.13
2022-12-24T20:34:11.982Z,44.40
2022-12-24T20:36:41.069Z,44.23
2022-12-24T20:39:09.951Z,43.97
2022-12-24T20:41:38.574Z,42.57
2022-12-24T20:44:07.420Z,46.47
2022-12-24T20:46:36.036Z,48.17
2022-12-24T20:49:05.397Z,47.43
2022-12-24T20:51:36.668Z,56.13
2022-12-24T20:54:05.608Z,56.10
2022-12-24T20:56:34.092Z,55.80
2022-12-24T20:59:03.364Z,53.57
2022-12-24T21:01:32.038Z,53.97
2022-12-24T21:04:04.852Z,49.60
2022-12-24T21:06:36.063Z,48.60
2022-12-24T21:09:05.944Z,50.90
2022-12-24T21:11:57.219Z,50.20
2022-12-24T21:14:28.584Z,48.90
2022-12-24T21:16:57.201Z,48.50
2022-12-24T21:19:26.840Z,47.17
2022-12-24T21:21:56.869Z,48.87
2022-12-24T21:24:25.466Z,50.00
2022-12-24T21:26:53.991Z,48.70
2022-12-24T21:29:22.617Z,51.23
2022-12-24T21:31:51.117Z,53.87
2022-12-24T21:34:19.638Z,60.10
2022-12-24T21:36:48.372Z,67.37
2022-12-24T21:39:18.313Z,59.87
2022-12-24T21:41:46.795Z,53.37
2022-12-24T21:44:15.352Z,51.90
2022-12-24T21:46:43.966Z,49.30
2022-12-24T21:49:30.005Z,48.63
2022-12-24T21:52:00.178Z,51.43
2022-12-24T21:54:32.320Z,50.03
2022-12-24T21:57:20.804Z,49.47
2022-12-24T21:59:51.864Z,46.90
2022-12-24T22:02:22.876Z,46.67
2022-12-24T22:04:51.480Z,52.43
2022-12-24T22:07:39.892Z,58.07
2022-12-24T22:10:29.204Z,44.70
2022-12-24T22:12:59.640Z,42.07
2022-12-24T22:15:28.772Z,37.43
2022-12-24T22:17:57.346Z,42.00
2022-12-24T22:20:26.665Z,39.37
2022-12-24T22:22:55.255Z,37.37
2022-12-24T22:25:25.252Z,34.93
2022-12-24T22:27:53.756Z,31.97
2022-12-24T22:30:22.525Z,34.33
2022-12-24T22:32:51.192Z,33.37
2022-12-24T22:35:19.780Z,33.30
2022-12-24T22:37:53.033Z,31.20
2022-12-24T22:40:28.063Z,31.20
2022-12-24T22:42:56.790Z,27.13
2022-12-24T22:45:25.485Z,26.83
2022-12-24T22:47:54.016Z,23.80
2022-12-24T22:50:22.627Z,22.73
2022-12-24T22:52:51.927Z,23.93
2022-12-24T22:55:20.730Z,24.43
2022-12-24T22:57:50.979Z,25.47
2022-12-24T23:00:39.306Z,33.43
2022-12-24T23:03:08.361Z,28.83
2022-12-24T23:05:37.300Z,26.93
2022-12-24T23:08:06.815Z,24.60
2022-12-24T23:10:35.415Z,24.00
2022-12-24T23:13:23.171Z,23.03
2022-12-24T23:15:51.839Z,24.50
2022-12-24T23:18:20.399Z,24.20
2022-12-24T23:20:48.992Z,23.10
2022-12-24T23:23:17.656Z,24.00
2022-12-24T23:25:46.303Z,25.07
2022-12-24T23:28:18.653Z,25.23
2022-12-24T23:30:47.627Z,25.80
2022-12-24T23:33:16.154Z,23.80
2022-12-24T23:35:44.621Z,24.07
2022-12-24T23:38:13.198Z,24.07
2022-12-24T23:40:43.020Z,23.77
2022-12-24T23:43:11.571Z,26.00
2022-12-24T23:45:47.179Z,27.03
2022-12-24T23:48:16.567Z,26.10
2022-12-24T23:50:45.786Z,26.47
2022-12-24T23:53:15.022Z,29.90
2022-12-24T23:55:43.891Z,34.90
2022-12-24T23:58:15.346Z,26.07
